sensor_id;sensor_type;location;lat;lon;timestamp;temperature;humidity
76577;DHT22;65441;44.748;37.600;2024-03-07T00:00:25;6.56;87.28
76577;DHT22;65441;44.748;37.600;2024-03-07T00:02:54;6.53;87.14
76577;DHT22;65441;44.748;37.600;2024-03-07T00:05:23;6.45;88.01
76577;DHT22;65441;44.748;37.600;2024-03-07T00:07:52;6.54;88.08
76577;DHT22;65441;44.748;37.600;2024-03-07T00:10:21;6.58;87.89
76577;DHT22;65441;44.748;37.600;2024-03-07T00:12:50;6.59;87.19
76577;DHT22;65441;44.748;37.600;2024-03-07T00:15:18;6.52;87.25
76577;DHT22;65441;44.748;37.600;2024-03-07T00:17:49;6.46;88.29
76577;DHT22;65441;44.748;37.600;2024-03-07T00:20:17;6.37;88.15
76577;DHT22;65441;44.748;37.600;2024-03-07T00:22:47;6.39;88.09
76577;DHT22;65441;44.748;37.600;2024-03-07T00:25:15;6.38;87.82
76577;DHT22;65441;44.748;37.600;2024-03-07T00:27:46;6.38;87.73
76577;DHT22;65441;44.748;37.600;2024-03-07T00:30:15;6.33;88.28
76577;DHT22;65441;44.748;37.600;2024-03-07T00:32:45;6.36;88.49
76577;DHT22;65441;44.748;37.600;2024-03-07T00:35:15;6.25;88.67
76577;DHT22;65441;44.748;37.600;2024-03-07T00:37:45;6.25;89.00
76577;DHT22;65441;44.748;37.600;2024-03-07T00:40:14;6.17;88.53
76577;DHT22;65441;44.748;37.600;2024-03-07T00:42:42;6.21;88.18
76577;DHT22;65441;44.748;37.600;2024-03-07T00:45:10;6.21;89.12
76577;DHT22;65441;44.748;37.600;2024-03-07T00:47:39;6.22;88.67
76577;DHT22;65441;44.748;37.600;2024-03-07T00:50:07;6.13;88.48
76577;DHT22;65441;44.748;37.600;2024-03-07T00:52:38;6.12;88.24
76577;DHT22;65441;44.748;37.600;2024-03-07T00:55:07;6.00;88.76
76577;DHT22;65441;44.748;37.600;2024-03-07T00:57:36;6.01;89.02
76577;DHT22;65441;44.748;37.600;2024-03-07T01:00:06;5.96;88.96
76577;DHT22;65441;44.748;37.600;2024-03-07T01:02:38;5.94;89.30
76577;DHT22;65441;44.748;37.600;2024-03-07T01:05:10;6.04;89.05
76577;DHT22;65441;44.748;37.600;2024-03-07T01:07:41;6.06;88.86
76577;DHT22;65441;44.748;37.600;2024-03-07T01:10:13;6.02;89.02
76577;DHT22;65441;44.748;37.600;2024-03-07T01:12:41;5.97;88.92
76577;DHT22;65441;44.748;37.600;2024-03-07T01:15:11;5.92;88.79
76577;DHT22;65441;44.748;37.600;2024-03-07T01:17:41;5.97;89.21
76577;DHT22;65441;44.748;37.600;2024-03-07T01:20:11;6.02;89.13
76577;DHT22;65441;44.748;37.600;2024-03-07T01:22:41;5.94;89.05
76577;DHT22;65441;44.748;37.600;2024-03-07T01:25:13;5.91;89.77
76577;DHT22;65441;44.748;37.600;2024-03-07T01:27:43;5.83;90.02
76577;DHT22;65441;44.748;37.600;2024-03-07T01:30:14;5.87;90.74
76577;DHT22;65441;44.748;37.600;2024-03-07T01:32:43;5.79;89.96
76577;DHT22;65441;44.748;37.600;2024-03-07T01:35:11;5.71;89.95
76577;DHT22;65441;44.748;37.600;2024-03-07T01:37:41;5.66;91.19
76577;DHT22;65441;44.748;37.600;2024-03-07T01:40:11;5.66;90.93
76577;DHT22;65441;44.748;37.600;2024-03-07T01:42:41;5.74;90.55
76577;DHT22;65441;44.748;37.600;2024-03-07T01:45:09;5.74;90.24
76577;DHT22;65441;44.748;37.600;2024-03-07T01:47:38;5.70;90.30
76577;DHT22;65441;44.748;37.600;2024-03-07T01:50:07;5.77;90.09
76577;DHT22;65441;44.748;37.600;2024-03-07T01:52:41;5.66;90.51
76577;DHT22;65441;44.748;37.600;2024-03-07T01:55:11;5.65;90.65
76577;DHT22;65441;44.748;37.600;2024-03-07T01:57:42;5.77;90.72
76577;DHT22;65441;44.748;37.600;2024-03-07T02:00:12;5.77;89.54
76577;DHT22;65441;44.748;37.600;2024-03-07T02:02:41;5.77;90.47
76577;DHT22;65441;44.748;37.600;2024-03-07T02:05:10;5.83;89.68
76577;DHT22;65441;44.748;37.600;2024-03-07T02:07:38;5.76;89.89
76577;DHT22;65441;44.748;37.600;2024-03-07T02:10:09;5.76;89.94
76577;DHT22;65441;44.748;37.600;2024-03-07T02:12:38;5.79;89.88
76577;DHT22;65441;44.748;37.600;2024-03-07T02:15:07;5.79;89.66
76577;DHT22;65441;44.748;37.600;2024-03-07T02:17:37;5.74;90.37
76577;DHT22;65441;44.748;37.600;2024-03-07T02:20:07;5.71;90.08
76577;DHT22;65441;44.748;37.600;2024-03-07T02:22:39;5.67;90.77
76577;DHT22;65441;44.748;37.600;2024-03-07T02:25:08;5.79;90.05
76577;DHT22;65441;44.748;37.600;2024-03-07T02:27:38;5.77;90.72
76577;DHT22;65441;44.748;37.600;2024-03-07T02:30:07;5.66;89.87
76577;DHT22;65441;44.748;37.600;2024-03-07T02:32:36;5.63;90.86
76577;DHT22;65441;44.748;37.600;2024-03-07T02:35:05;5.69;89.92
76577;DHT22;65441;44.748;37.600;2024-03-07T02:37:35;5.70;89.89
76577;DHT22;65441;44.748;37.600;2024-03-07T02:40:07;5.60;90.60
76577;DHT22;65441;44.748;37.600;2024-03-07T02:42:35;5.55;90.57
76577;DHT22;65441;44.748;37.600;2024-03-07T02:45:04;5.57;90.70
76577;DHT22;65441;44.748;37.600;2024-03-07T02:47:33;5.49;90.57
76577;DHT22;65441;44.748;37.600;2024-03-07T02:50:03;5.51;90.94
76577;DHT22;65441;44.748;37.600;2024-03-07T02:52:33;5.54;90.88
76577;DHT22;65441;44.748;37.600;2024-03-07T02:55:01;5.50;90.42
76577;DHT22;65441;44.748;37.600;2024-03-07T02:57:33;5.57;90.95
76577;DHT22;65441;44.748;37.600;2024-03-07T03:00:02;5.62;91.13
76577;DHT22;65441;44.748;37.600;2024-03-07T03:02:40;5.68;90.62
76577;DHT22;65441;44.748;37.600;2024-03-07T03:05:08;5.72;89.67
76577;DHT22;65441;44.748;37.600;2024-03-07T03:07:37;5.83;89.46
76577;DHT22;65441;44.748;37.600;2024-03-07T03:10:07;5.80;89.47
76577;DHT22;65441;44.748;37.600;2024-03-07T03:12:38;5.89;89.46
76577;DHT22;65441;44.748;37.600;2024-03-07T03:15:08;5.94;89.19
76577;DHT22;65441;44.748;37.600;2024-03-07T03:17:38;5.89;89.25
76577;DHT22;65441;44.748;37.600;2024-03-07T03:20:08;5.90;89.09
76577;DHT22;65441;44.748;37.600;2024-03-07T03:22:46;5.76;88.96
76577;DHT22;65441;44.748;37.600;2024-03-07T03:25:17;5.74;89.50
76577;DHT22;65441;44.748;37.600;2024-03-07T03:27:47;5.87;89.99
76577;DHT22;65441;44.748;37.600;2024-03-07T03:30:16;5.87;89.36
76577;DHT22;65441;44.748;37.600;2024-03-07T03:32:46;5.79;88.89
76577;DHT22;65441;44.748;37.600;2024-03-07T03:35:15;5.85;87.91
76577;DHT22;65441;44.748;37.600;2024-03-07T03:37:44;5.71;88.58
76577;DHT22;65441;44.748;37.600;2024-03-07T03:40:13;5.67;89.96
76577;DHT22;65441;44.748;37.600;2024-03-07T03:42:42;5.95;88.99
76577;DHT22;65441;44.748;37.600;2024-03-07T03:45:12;5.84;88.02
76577;DHT22;65441;44.748;37.600;2024-03-07T03:47:43;6.00;87.90
76577;DHT22;65441;44.748;37.600;2024-03-07T03:50:12;6.05;87.12
76577;DHT22;65441;44.748;37.600;2024-03-07T03:52:41;5.95;87.33
76577;DHT22;65441;44.748;37.600;2024-03-07T03:55:10;5.87;87.78
76577;DHT22;65441;44.748;37.600;2024-03-07T03:57:40;5.93;89.12
76577;DHT22;65441;44.748;37.600;2024-03-07T04:00:12;5.94;87.35
76577;DHT22;65441;44.748;37.600;2024-03-07T04:02:41;5.56;88.04
76577;DHT22;65441;44.748;37.600;2024-03-07T04:05:10;5.61;88.57
76577;DHT22;65441;44.748;37.600;2024-03-07T04:07:40;5.56;88.31
76577;DHT22;65441;44.748;37.600;2024-03-07T04:10:10;5.75;88.56
76577;DHT22;65441;44.748;37.600;2024-03-07T04:12:40;5.49;87.86
76577;DHT22;65441;44.748;37.600;2024-03-07T04:15:10;5.54;88.66
76577;DHT22;65441;44.748;37.600;2024-03-07T04:17:40;5.66;86.25
76577;DHT22;65441;44.748;37.600;2024-03-07T04:20:10;6.01;87.29
76577;DHT22;65441;44.748;37.600;2024-03-07T04:22:40;5.53;86.90
76577;DHT22;65441;44.748;37.600;2024-03-07T04:25:09;5.60;89.71
76577;DHT22;65441;44.748;37.600;2024-03-07T04:27:38;6.04;87.02
76577;DHT22;65441;44.748;37.600;2024-03-07T04:30:07;6.16;87.42
76577;DHT22;65441;44.748;37.600;2024-03-07T04:32:37;6.37;85.87
76577;DHT22;65441;44.748;37.600;2024-03-07T04:35:08;6.50;84.27
76577;DHT22;65441;44.748;37.600;2024-03-07T04:37:37;6.45;85.10
76577;DHT22;65441;44.748;37.600;2024-03-07T04:40:08;6.09;85.94
76577;DHT22;65441;44.748;37.600;2024-03-07T04:42:43;6.20;86.02
76577;DHT22;65441;44.748;37.600;2024-03-07T04:45:13;6.10;85.54
76577;DHT22;65441;44.748;37.600;2024-03-07T04:47:41;6.12;84.84
76577;DHT22;65441;44.748;37.600;2024-03-07T04:50:12;5.91;84.97
76577;DHT22;65441;44.748;37.600;2024-03-07T04:52:44;5.83;85.50
76577;DHT22;65441;44.748;37.600;2024-03-07T04:55:15;5.81;85.81
76577;DHT22;65441;44.748;37.600;2024-03-07T04:57:44;5.65;83.90
76577;DHT22;65441;44.748;37.600;2024-03-07T05:00:13;5.91;86.61
76577;DHT22;65441;44.748;37.600;2024-03-07T05:02:42;5.90;85.25
76577;DHT22;65441;44.748;37.600;2024-03-07T05:05:13;5.83;84.73
76577;DHT22;65441;44.748;37.600;2024-03-07T05:07:41;5.70;85.02
76577;DHT22;65441;44.748;37.600;2024-03-07T05:10:10;5.67;85.68
76577;DHT22;65441;44.748;37.600;2024-03-07T05:12:38;6.02;85.90
76577;DHT22;65441;44.748;37.600;2024-03-07T05:15:07;5.91;82.92
76577;DHT22;65441;44.748;37.600;2024-03-07T05:17:37;5.98;85.97
76577;DHT22;65441;44.748;37.600;2024-03-07T05:20:09;6.19;85.46
76577;DHT22;65441;44.748;37.600;2024-03-07T05:22:40;6.20;84.09
76577;DHT22;65441;44.748;37.600;2024-03-07T05:25:11;5.95;82.98
76577;DHT22;65441;44.748;37.600;2024-03-07T05:27:40;5.78;83.94
76577;DHT22;65441;44.748;37.600;2024-03-07T05:30:09;5.63;84.88
76577;DHT22;65441;44.748;37.600;2024-03-07T05:32:40;5.61;84.65
76577;DHT22;65441;44.748;37.600;2024-03-07T05:35:09;5.57;85.20
76577;DHT22;65441;44.748;37.600;2024-03-07T05:37:38;5.94;84.22
76577;DHT22;65441;44.748;37.600;2024-03-07T05:40:10;5.68;81.72
76577;DHT22;65441;44.748;37.600;2024-03-07T05:42:39;5.48;85.34
76577;DHT22;65441;44.748;37.600;2024-03-07T05:45:08;5.56;84.81
76577;DHT22;65441;44.748;37.600;2024-03-07T05:47:37;5.50;84.22
76577;DHT22;65441;44.748;37.600;2024-03-07T05:50:07;5.56;83.00
76577;DHT22;65441;44.748;37.600;2024-03-07T05:52:35;5.57;84.95
76577;DHT22;65441;44.748;37.600;2024-03-07T05:55:04;5.48;84.93
76577;DHT22;65441;44.748;37.600;2024-03-07T05:57:35;5.42;85.09
76577;DHT22;65441;44.748;37.600;2024-03-07T06:00:05;5.42;82.23
76577;DHT22;65441;44.748;37.600;2024-03-07T06:02:39;5.54;85.67
76577;DHT22;65441;44.748;37.600;2024-03-07T06:05:08;5.41;82.71
76577;DHT22;65441;44.748;37.600;2024-03-07T06:07:42;5.90;84.11
76577;DHT22;65441;44.748;37.600;2024-03-07T06:10:12;5.85;84.41
76577;DHT22;65441;44.748;37.600;2024-03-07T06:12:44;5.74;82.47
76577;DHT22;65441;44.748;37.600;2024-03-07T06:15:13;5.97;83.24
76577;DHT22;65441;44.748;37.600;2024-03-07T06:17:42;5.97;83.19
76577;DHT22;65441;44.748;37.600;2024-03-07T06:20:13;5.79;82.00
76577;DHT22;65441;44.748;37.600;2024-03-07T06:22:49;5.55;84.07
76577;DHT22;65441;44.748;37.600;2024-03-07T06:25:19;5.86;84.43
76577;DHT22;65441;44.748;37.600;2024-03-07T06:28:02;5.94;82.85
76577;DHT22;65441;44.748;37.600;2024-03-07T06:30:36;5.96;81.73
76577;DHT22;65441;44.748;37.600;2024-03-07T06:33:06;6.04;80.52
76577;DHT22;65441;44.748;37.600;2024-03-07T06:35:35;6.01;81.44
76577;DHT22;65441;44.748;37.600;2024-03-07T06:38:05;6.08;81.70
76577;DHT22;65441;44.748;37.600;2024-03-07T06:40:35;6.00;81.70
76577;DHT22;65441;44.748;37.600;2024-03-07T06:43:05;6.38;83.53
76577;DHT22;65441;44.748;37.600;2024-03-07T06:45:36;6.30;80.06
76577;DHT22;65441;44.748;37.600;2024-03-07T06:48:06;6.40;82.44
76577;DHT22;65441;44.748;37.600;2024-03-07T06:50:35;6.50;82.48
76577;DHT22;65441;44.748;37.600;2024-03-07T06:53:04;6.13;77.09
76577;DHT22;65441;44.748;37.600;2024-03-07T06:55:33;6.14;82.19
76577;DHT22;65441;44.748;37.600;2024-03-07T06:58:02;6.64;81.97
76577;DHT22;65441;44.748;37.600;2024-03-07T07:00:34;6.81;80.49
76577;DHT22;65441;44.748;37.600;2024-03-07T07:03:07;6.70;80.73
76577;DHT22;65441;44.748;37.600;2024-03-07T07:05:35;6.68;78.14
76577;DHT22;65441;44.748;37.600;2024-03-07T07:08:05;6.82;78.29
76577;DHT22;65441;44.748;37.600;2024-03-07T07:10:34;6.54;78.21
76577;DHT22;65441;44.748;37.600;2024-03-07T07:13:03;6.59;81.17
76577;DHT22;65441;44.748;37.600;2024-03-07T07:15:34;6.73;80.75
76577;DHT22;65441;44.748;37.600;2024-03-07T07:18:04;7.11;81.70
76577;DHT22;65441;44.748;37.600;2024-03-07T07:20:34;7.02;79.32
76577;DHT22;65441;44.748;37.600;2024-03-07T07:23:03;6.89;78.20
76577;DHT22;65441;44.748;37.600;2024-03-07T07:25:31;7.13;80.30
76577;DHT22;65441;44.748;37.600;2024-03-07T07:28:01;7.17;79.90
76577;DHT22;65441;44.748;37.600;2024-03-07T07:30:31;7.12;78.87
76577;DHT22;65441;44.748;37.600;2024-03-07T07:33:02;7.42;78.01
76577;DHT22;65441;44.748;37.600;2024-03-07T07:35:30;7.26;80.64
76577;DHT22;65441;44.748;37.600;2024-03-07T07:38:00;7.41;78.05
76577;DHT22;65441;44.748;37.600;2024-03-07T07:40:28;7.64;78.04
76577;DHT22;65441;44.748;37.600;2024-03-07T07:42:59;7.59;73.44
76577;DHT22;65441;44.748;37.600;2024-03-07T07:45:29;7.63;76.24
76577;DHT22;65441;44.748;37.600;2024-03-07T07:48:00;7.46;77.47
76577;DHT22;65441;44.748;37.600;2024-03-07T07:50:29;7.18;76.00
76577;DHT22;65441;44.748;37.600;2024-03-07T07:53:00;7.42;74.96
76577;DHT22;65441;44.748;37.600;2024-03-07T07:55:32;7.82;78.43
76577;DHT22;65441;44.748;37.600;2024-03-07T07:58:00;7.70;72.63
76577;DHT22;65441;44.748;37.600;2024-03-07T08:00:30;7.32;75.96
76577;DHT22;65441;44.748;37.600;2024-03-07T08:03:01;7.19;81.38
76577;DHT22;65441;44.748;37.600;2024-03-07T08:05:31;7.65;82.13
76577;DHT22;65441;44.748;37.600;2024-03-07T08:08:01;7.67;78.60
76577;DHT22;65441;44.748;37.600;2024-03-07T08:10:32;7.99;77.65
76577;DHT22;65441;44.748;37.600;2024-03-07T08:13:01;7.92;76.61
76577;DHT22;65441;44.748;37.600;2024-03-07T08:15:32;7.75;73.93
76577;DHT22;65441;44.748;37.600;2024-03-07T08:18:03;7.62;74.13
76577;DHT22;65441;44.748;37.600;2024-03-07T08:20:35;8.02;78.97
76577;DHT22;65441;44.748;37.600;2024-03-07T08:23:04;8.13;74.74
76577;DHT22;65441;44.748;37.600;2024-03-07T08:25:32;8.23;74.71
76577;DHT22;65441;44.748;37.600;2024-03-07T08:28:01;8.28;74.51
76577;DHT22;65441;44.748;37.600;2024-03-07T08:30:29;8.29;74.70
76577;DHT22;65441;44.748;37.600;2024-03-07T08:32:58;8.19;73.17
76577;DHT22;65441;44.748;37.600;2024-03-07T08:35:31;8.34;77.71
76577;DHT22;65441;44.748;37.600;2024-03-07T08:37:59;8.56;76.59
76577;DHT22;65441;44.748;37.600;2024-03-07T08:40:29;8.45;68.52
76577;DHT22;65441;44.748;37.600;2024-03-07T08:43:00;8.37;75.89
76577;DHT22;65441;44.748;37.600;2024-03-07T08:45:29;8.77;73.41
76577;DHT22;65441;44.748;37.600;2024-03-07T08:48:00;8.35;73.93
76577;DHT22;65441;44.748;37.600;2024-03-07T08:50:32;8.43;70.47
76577;DHT22;65441;44.748;37.600;2024-03-07T08:53:01;8.29;74.24
76577;DHT22;65441;44.748;37.600;2024-03-07T08:55:31;8.38;74.52
76577;DHT22;65441;44.748;37.600;2024-03-07T08:57:59;8.30;70.52
76577;DHT22;65441;44.748;37.600;2024-03-07T09:00:28;8.05;72.75
76577;DHT22;65441;44.748;37.600;2024-03-07T09:02:57;8.55;73.62
76577;DHT22;65441;44.748;37.600;2024-03-07T09:05:26;8.44;72.38
76577;DHT22;65441;44.748;37.600;2024-03-07T09:07:56;8.20;75.02
76577;DHT22;65441;44.748;37.600;2024-03-07T09:10:25;8.36;74.02
76577;DHT22;65441;44.748;37.600;2024-03-07T09:12:56;8.32;70.58
76577;DHT22;65441;44.748;37.600;2024-03-07T09:15:25;8.74;69.71
76577;DHT22;65441;44.748;37.600;2024-03-07T09:17:54;9.57;72.21
76577;DHT22;65441;44.748;37.600;2024-03-07T09:20:24;9.35;69.38
76577;DHT22;65441;44.748;37.600;2024-03-07T09:22:53;9.88;68.07
76577;DHT22;65441;44.748;37.600;2024-03-07T09:25:24;9.39;72.38
76577;DHT22;65441;44.748;37.600;2024-03-07T09:27:52;8.72;70.20
76577;DHT22;65441;44.748;37.600;2024-03-07T09:30:21;9.69;71.32
76577;DHT22;65441;44.748;37.600;2024-03-07T09:32:52;10.03;67.41
76577;DHT22;65441;44.748;37.600;2024-03-07T09:35:22;9.38;65.12
76577;DHT22;65441;44.748;37.600;2024-03-07T09:37:50;9.83;66.99
76577;DHT22;65441;44.748;37.600;2024-03-07T09:40:20;10.15;68.71
76577;DHT22;65441;44.748;37.600;2024-03-07T09:42:54;10.36;63.95
76577;DHT22;65441;44.748;37.600;2024-03-07T09:45:29;10.66;67.61
76577;DHT22;65441;44.748;37.600;2024-03-07T09:47:59;10.78;65.59
76577;DHT22;65441;44.748;37.600;2024-03-07T09:50:29;10.73;64.85
76577;DHT22;65441;44.748;37.600;2024-03-07T09:52:58;9.65;67.46
76577;DHT22;65441;44.748;37.600;2024-03-07T09:55:27;10.22;69.58
76577;DHT22;65441;44.748;37.600;2024-03-07T09:57:58;9.96;64.92
76577;DHT22;65441;44.748;37.600;2024-03-07T10:00:28;10.52;67.19
76577;DHT22;65441;44.748;37.600;2024-03-07T10:02:58;10.45;62.54
76577;DHT22;65441;44.748;37.600;2024-03-07T10:05:27;9.69;63.78
76577;DHT22;65441;44.748;37.600;2024-03-07T10:07:56;9.05;70.22
76577;DHT22;65441;44.748;37.600;2024-03-07T10:10:25;9.27;69.18
76577;DHT22;65441;44.748;37.600;2024-03-07T10:12:53;8.48;70.52
76577;DHT22;65441;44.748;37.600;2024-03-07T10:15:28;8.94;70.98
76577;DHT22;65441;44.748;37.600;2024-03-07T10:17:57;8.82;68.91
76577;DHT22;65441;44.748;37.600;2024-03-07T10:20:25;8.60;69.84
76577;DHT22;65441;44.748;37.600;2024-03-07T10:22:54;8.38;70.92
76577;DHT22;65441;44.748;37.600;2024-03-07T10:25:23;8.63;70.05
76577;DHT22;65441;44.748;37.600;2024-03-07T10:27:54;9.03;71.40
76577;DHT22;65441;44.748;37.600;2024-03-07T10:30:24;9.01;68.67
76577;DHT22;65441;44.748;37.600;2024-03-07T10:32:55;9.18;70.10
76577;DHT22;65441;44.748;37.600;2024-03-07T10:35:25;8.81;69.58
76577;DHT22;65441;44.748;37.600;2024-03-07T10:37:53;8.56;70.58
76577;DHT22;65441;44.748;37.600;2024-03-07T10:40:22;8.57;69.94
76577;DHT22;65441;44.748;37.600;2024-03-07T10:42:57;8.44;71.37
76577;DHT22;65441;44.748;37.600;2024-03-07T10:45:29;8.78;72.06
76577;DHT22;65441;44.748;37.600;2024-03-07T10:48:01;8.97;71.13
76577;DHT22;65441;44.748;37.600;2024-03-07T10:50:38;9.05;72.45
76577;DHT22;65441;44.748;37.600;2024-03-07T10:53:16;9.19;71.73
76577;DHT22;65441;44.748;37.600;2024-03-07T10:55:57;9.27;71.42
76577;DHT22;65441;44.748;37.600;2024-03-07T10:58:35;9.15;71.46
76577;DHT22;65441;44.748;37.600;2024-03-07T11:01:06;9.09;71.32
76577;DHT22;65441;44.748;37.600;2024-03-07T11:03:39;9.25;70.87
76577;DHT22;65441;44.748;37.600;2024-03-07T11:06:10;8.59;71.93
76577;DHT22;65441;44.748;37.600;2024-03-07T11:08:39;8.52;70.78
76577;DHT22;65441;44.748;37.600;2024-03-07T11:11:08;8.00;74.80
76577;DHT22;65441;44.748;37.600;2024-03-07T11:13:39;8.38;72.60
76577;DHT22;65441;44.748;37.600;2024-03-07T11:16:07;8.03;72.71
76577;DHT22;65441;44.748;37.600;2024-03-07T11:18:36;8.42;71.71
76577;DHT22;65441;44.748;37.600;2024-03-07T11:21:06;8.14;71.02
76577;DHT22;65441;44.748;37.600;2024-03-07T11:23:35;8.11;72.99
76577;DHT22;65441;44.748;37.600;2024-03-07T11:26:08;8.20;72.36
76577;DHT22;65441;44.748;37.600;2024-03-07T11:28:39;8.15;72.96
76577;DHT22;65441;44.748;37.600;2024-03-07T11:31:09;8.28;73.50
76577;DHT22;65441;44.748;37.600;2024-03-07T11:33:37;7.98;73.29
76577;DHT22;65441;44.748;37.600;2024-03-07T11:36:10;7.79;72.59
76577;DHT22;65441;44.748;37.600;2024-03-07T11:38:45;7.74;74.05
76577;DHT22;65441;44.748;37.600;2024-03-07T11:41:19;8.05;74.35
76577;DHT22;65441;44.748;37.600;2024-03-07T11:43:47;8.35;72.24
76577;DHT22;65441;44.748;37.600;2024-03-07T11:46:16;7.70;72.61
76577;DHT22;65441;44.748;37.600;2024-03-07T11:48:44;7.77;73.54
76577;DHT22;65441;44.748;37.600;2024-03-07T11:51:18;7.55;75.50
76577;DHT22;65441;44.748;37.600;2024-03-07T11:53:52;7.72;73.93
76577;DHT22;65441;44.748;37.600;2024-03-07T11:56:22;7.56;74.34
76577;DHT22;65441;44.748;37.600;2024-03-07T11:58:51;7.77;74.15
76577;DHT22;65441;44.748;37.600;2024-03-07T12:01:21;7.70;73.66
76577;DHT22;65441;44.748;37.600;2024-03-07T12:03:52;7.78;74.47
76577;DHT22;65441;44.748;37.600;2024-03-07T12:06:22;7.67;73.34
76577;DHT22;65441;44.748;37.600;2024-03-07T12:08:50;7.62;74.81
76577;DHT22;65441;44.748;37.600;2024-03-07T12:11:19;7.58;72.93
76577;DHT22;65441;44.748;37.600;2024-03-07T12:13:48;7.58;72.64
76577;DHT22;65441;44.748;37.600;2024-03-07T12:16:18;7.56;73.74
76577;DHT22;65441;44.748;37.600;2024-03-07T12:18:46;7.42;74.09
76577;DHT22;65441;44.748;37.600;2024-03-07T12:21:15;7.45;75.10
76577;DHT22;65441;44.748;37.600;2024-03-07T12:23:47;7.23;73.73
76577;DHT22;65441;44.748;37.600;2024-03-07T12:26:20;7.25;74.88
76577;DHT22;65441;44.748;37.600;2024-03-07T12:28:51;7.35;75.62
76577;DHT22;65441;44.748;37.600;2024-03-07T12:31:21;7.10;74.59
76577;DHT22;65441;44.748;37.600;2024-03-07T12:33:51;7.01;75.54
76577;DHT22;65441;44.748;37.600;2024-03-07T12:36:20;7.19;75.01
76577;DHT22;65441;44.748;37.600;2024-03-07T12:38:54;6.91;75.60
76577;DHT22;65441;44.748;37.600;2024-03-07T12:41:23;6.91;75.79
76577;DHT22;65441;44.748;37.600;2024-03-07T12:43:52;7.23;75.73
76577;DHT22;65441;44.748;37.600;2024-03-07T12:46:21;7.33;75.79
76577;DHT22;65441;44.748;37.600;2024-03-07T12:48:50;6.96;74.68
76577;DHT22;65441;44.748;37.600;2024-03-07T12:51:18;6.85;75.31
76577;DHT22;65441;44.748;37.600;2024-03-07T12:53:53;6.68;77.73
76577;DHT22;65441;44.748;37.600;2024-03-07T12:56:22;6.74;77.50
76577;DHT22;65441;44.748;37.600;2024-03-07T12:58:50;6.85;76.97
76577;DHT22;65441;44.748;37.600;2024-03-07T13:01:20;6.78;77.94
76577;DHT22;65441;44.748;37.600;2024-03-07T13:03:49;6.90;77.36
76577;DHT22;65441;44.748;37.600;2024-03-07T13:06:17;7.00;77.39
76577;DHT22;65441;44.748;37.600;2024-03-07T13:08:53;7.24;76.63
76577;DHT22;65441;44.748;37.600;2024-03-07T13:11:23;7.00;77.50
76577;DHT22;65441;44.748;37.600;2024-03-07T13:13:54;6.57;77.68
76577;DHT22;65441;44.748;37.600;2024-03-07T13:16:23;6.70;77.48
76577;DHT22;65441;44.748;37.600;2024-03-07T13:18:54;6.61;78.98
76577;DHT22;65441;44.748;37.600;2024-03-07T13:21:22;6.51;79.69
76577;DHT22;65441;44.748;37.600;2024-03-07T13:23:51;6.40;78.30
76577;DHT22;65441;44.748;37.600;2024-03-07T13:26:22;6.31;78.35
76577;DHT22;65441;44.748;37.600;2024-03-07T13:28:53;6.21;81.03
76577;DHT22;65441;44.748;37.600;2024-03-07T13:31:22;6.20;80.20
76577;DHT22;65441;44.748;37.600;2024-03-07T13:33:52;6.53;81.49
76577;DHT22;65441;44.748;37.600;2024-03-07T13:36:21;6.45;80.04
76577;DHT22;65441;44.748;37.600;2024-03-07T13:38:52;6.37;79.47
76577;DHT22;65441;44.748;37.600;2024-03-07T13:41:24;6.43;80.52
76577;DHT22;65441;44.748;37.600;2024-03-07T13:43:55;6.17;79.99
76577;DHT22;65441;44.748;37.600;2024-03-07T13:46:24;6.31;81.75
76577;DHT22;65441;44.748;37.600;2024-03-07T13:48:52;6.27;82.11
76577;DHT22;65441;44.748;37.600;2024-03-07T13:51:21;6.15;82.26
76577;DHT22;65441;44.748;37.600;2024-03-07T13:53:49;6.30;81.03
76577;DHT22;65441;44.748;37.600;2024-03-07T13:56:44;6.14;80.07
76577;DHT22;65441;44.748;37.600;2024-03-07T13:59:31;6.16;81.90
76577;DHT22;65441;44.748;37.600;2024-03-07T14:02:22;6.26;82.44
76577;DHT22;65441;44.748;37.600;2024-03-07T14:14:34;6.54;80.48
76577;DHT22;65441;44.748;37.600;2024-03-07T14:17:13;6.31;79.72
76577;DHT22;65441;44.748;37.600;2024-03-07T14:23:14;5.86;80.60
76577;DHT22;65441;44.748;37.600;2024-03-07T14:26:14;5.98;81.91
76577;DHT22;65441;44.748;37.600;2024-03-07T14:29:14;5.97;80.91
76577;DHT22;65441;44.748;37.600;2024-03-07T14:31:46;5.89;81.10
76577;DHT22;65441;44.748;37.600;2024-03-07T14:34:29;5.76;82.43
76577;DHT22;65441;44.748;37.600;2024-03-07T14:37:10;5.84;81.72
76577;DHT22;65441;44.748;37.600;2024-03-07T14:39:40;5.81;81.84
76577;DHT22;65441;44.748;37.600;2024-03-07T14:42:11;5.70;82.24
76577;DHT22;65441;44.748;37.600;2024-03-07T14:44:43;5.67;82.29
76577;DHT22;65441;44.748;37.600;2024-03-07T14:47:20;5.61;83.06
76577;DHT22;65441;44.748;37.600;2024-03-07T14:49:49;5.28;81.58
76577;DHT22;65441;44.748;37.600;2024-03-07T14:52:18;5.48;81.68
76577;DHT22;65441;44.748;37.600;2024-03-07T14:54:48;5.43;82.30
76577;DHT22;65441;44.748;37.600;2024-03-07T14:57:16;5.50;82.62
76577;DHT22;65441;44.748;37.600;2024-03-07T14:59:45;5.56;82.44
76577;DHT22;65441;44.748;37.600;2024-03-07T15:02:13;5.49;81.17
76577;DHT22;65441;44.748;37.600;2024-03-07T15:04:43;5.35;82.82
76577;DHT22;65441;44.748;37.600;2024-03-07T15:07:13;5.22;82.00
76577;DHT22;65441;44.748;37.600;2024-03-07T15:09:41;5.41;83.89
76577;DHT22;65441;44.748;37.600;2024-03-07T15:12:09;5.32;82.04
76577;DHT22;65441;44.748;37.600;2024-03-07T15:14:38;5.25;81.74
76577;DHT22;65441;44.748;37.600;2024-03-07T15:17:07;5.42;82.60
76577;DHT22;65441;44.748;37.600;2024-03-07T15:19:35;5.39;82.93
76577;DHT22;65441;44.748;37.600;2024-03-07T15:22:05;5.35;83.15
76577;DHT22;65441;44.748;37.600;2024-03-07T15:24:34;5.26;82.04
76577;DHT22;65441;44.748;37.600;2024-03-07T15:27:03;5.04;82.78
76577;DHT22;65441;44.748;37.600;2024-03-07T15:29:32;4.90;84.58
76577;DHT22;65441;44.748;37.600;2024-03-07T15:32:01;5.15;85.13
76577;DHT22;65441;44.748;37.600;2024-03-07T15:34:34;5.13;83.65
76577;DHT22;65441;44.748;37.600;2024-03-07T15:37:10;4.96;83.78
76577;DHT22;65441;44.748;37.600;2024-03-07T15:39:41;5.08;85.35
76577;DHT22;65441;44.748;37.600;2024-03-07T15:42:14;5.00;84.19
76577;DHT22;65441;44.748;37.600;2024-03-07T15:44:46;5.18;83.09
76577;DHT22;65441;44.748;37.600;2024-03-07T15:47:14;5.12;83.94
76577;DHT22;65441;44.748;37.600;2024-03-07T15:49:48;5.34;84.52
76577;DHT22;65441;44.748;37.600;2024-03-07T15:52:20;5.48;84.67
76577;DHT22;65441;44.748;37.600;2024-03-07T15:54:48;5.21;83.65
76577;DHT22;65441;44.748;37.600;2024-03-07T15:57:17;5.37;83.70
76577;DHT22;65441;44.748;37.600;2024-03-07T15:59:46;5.21;83.69
76577;DHT22;65441;44.748;37.600;2024-03-07T16:02:15;5.09;83.23